createdAt,value
2018-09-06T00:00:17.538Z,16.90
2018-09-06T00:02:44.755Z,16.90
2018-09-06T00:05:12.059Z,16.90
2018-09-06T00:07:39.276Z,16.90
2018-09-06T00:10:06.576Z,16.90
2018-09-06T00:12:33.831Z,16.90
2018-09-06T00:15:01.101Z,16.90
2018-09-06T00:17:28.365Z,16.90
2018-09-06T00:19:55.622Z,16.80
2018-09-06T00:25:53.760Z,16.80
2018-09-06T00:28:21.034Z,16.70
2018-09-06T00:30:48.311Z,16.70
2018-09-06T00:33:15.534Z,16.70
2018-09-06T00:35:42.875Z,16.70
2018-09-06T00:38:10.228Z,16.60
2018-09-06T00:40:37.447Z,16.70
2018-09-06T00:43:04.724Z,16.60
2018-09-06T00:45:31.999Z,16.60
2018-09-06T00:47:59.258Z,16.50
2018-09-06T00:50:26.537Z,16.50
2018-09-06T00:52:53.868Z,16.60
2018-09-06T00:55:21.505Z,16.60
2018-09-06T00:57:48.867Z,16.50
2018-09-06T01:00:16.145Z,16.50
2018-09-06T01:02:43.682Z,16.50
2018-09-06T01:05:11.120Z,16.40
2018-09-06T01:07:41.695Z,16.40
2018-09-06T01:10:09.110Z,16.40
2018-09-06T01:12:37.341Z,16.40
2018-09-06T01:15:04.734Z,16.30
2018-09-06T01:17:31.970Z,16.30
2018-09-06T01:19:59.214Z,16.30
2018-09-06T01:22:26.538Z,16.30
2018-09-06T01:24:55.742Z,16.30
2018-09-06T01:27:22.971Z,16.20
2018-09-06T01:29:50.247Z,16.20
2018-09-06T01:32:20.599Z,16.20
2018-09-06T01:34:47.846Z,16.20
2018-09-06T01:37:15.106Z,16.20
2018-09-06T01:39:42.346Z,16.20
2018-09-06T01:42:09.630Z,16.10
2018-09-06T01:44:36.894Z,16.10
2018-09-06T01:47:04.218Z,16.10
2018-09-06T01:49:32.118Z,16.00
2018-09-06T01:51:59.670Z,16.00
2018-09-06T01:54:27.043Z,16.00
2018-09-06T01:56:54.377Z,15.90
2018-09-06T01:59:21.834Z,15.90
2018-09-06T02:01:49.066Z,15.90
2018-09-06T02:04:16.339Z,15.90
2018-09-06T02:06:43.714Z,15.90
2018-09-06T02:09:11.005Z,15.80
2018-09-06T02:11:39.342Z,15.80
2018-09-06T02:14:06.926Z,15.70
2018-09-06T02:16:34.766Z,15.80
2018-09-06T02:19:02.030Z,15.80
2018-09-06T02:21:29.286Z,15.80
2018-09-06T02:23:56.510Z,15.70
2018-09-06T02:26:23.771Z,15.80
2018-09-06T02:28:51.063Z,15.70
2018-09-06T02:31:18.691Z,15.70
2018-09-06T02:33:46.006Z,15.70
2018-09-06T02:36:13.254Z,15.70
2018-09-06T02:38:40.543Z,15.70
2018-09-06T02:41:07.822Z,15.60
2018-09-06T02:43:35.032Z,15.60
2018-09-06T02:46:02.327Z,15.60
2018-09-06T02:48:35.200Z,15.50
2018-09-06T02:51:08.222Z,15.50
2018-09-06T02:53:35.471Z,15.50
2018-09-06T02:56:02.751Z,15.50
2018-09-06T02:58:30.018Z,15.50
2018-09-06T03:00:58.227Z,15.50
2018-09-06T03:03:25.451Z,15.50
2018-09-06T03:05:52.742Z,15.50
2018-09-06T03:08:19.978Z,15.50
2018-09-06T03:10:49.301Z,15.40
2018-09-06T03:13:16.566Z,15.40
2018-09-06T03:15:43.867Z,15.30
2018-09-06T03:18:11.070Z,15.30
2018-09-06T03:20:38.365Z,15.30
2018-09-06T03:23:05.724Z,15.20
2018-09-06T03:25:33.277Z,15.20
2018-09-06T03:28:02.930Z,15.20
2018-09-06T03:30:30.158Z,15.20
2018-09-06T03:33:01.376Z,15.10
2018-09-06T03:35:28.802Z,15.20
2018-09-06T03:37:56.075Z,15.10
2018-09-06T03:40:23.315Z,15.10
2018-09-06T03:42:50.705Z,15.10
2018-09-06T03:45:17.994Z,15.10
2018-09-06T03:47:45.265Z,15.00
2018-09-06T03:50:12.510Z,15.00
2018-09-06T03:52:40.027Z,15.00
2018-09-06T03:55:07.413Z,15.00
2018-09-06T03:57:34.865Z,15.00
2018-09-06T04:00:02.107Z,15.00
2018-09-06T04:02:29.343Z,14.90
2018-09-06T04:04:56.594Z,14.90
2018-09-06T04:07:23.874Z,14.90
2018-09-06T04:09:51.098Z,14.90
2018-09-06T04:12:19.367Z,14.90
2018-09-06T04:14:46.581Z,14.90
2018-09-06T04:17:13.842Z,14.80
2018-09-06T04:19:42.378Z,14.90
2018-09-06T04:22:09.603Z,14.80
2018-09-06T04:24:36.867Z,14.80
2018-09-06T04:27:05.223Z,14.80
2018-09-06T04:29:32.402Z,14.80
2018-09-06T04:31:59.670Z,14.80
2018-09-06T04:34:26.979Z,14.70
2018-09-06T04:36:54.239Z,14.80
2018-09-06T04:39:21.479Z,14.80
2018-09-06T04:41:48.730Z,14.70
2018-09-06T04:44:16.166Z,14.70
2018-09-06T04:46:44.457Z,14.70
2018-09-06T04:49:11.652Z,14.70
2018-09-06T04:51:38.985Z,14.70
2018-09-06T04:54:06.211Z,14.70
2018-09-06T04:56:33.450Z,14.70
2018-09-06T04:59:00.806Z,14.70
2018-09-06T05:01:28.230Z,14.70
2018-09-06T05:03:55.523Z,14.70
2018-09-06T05:06:22.706Z,14.70
2018-09-06T05:08:49.986Z,14.70
2018-09-06T05:11:17.339Z,14.70
2018-09-06T05:13:44.654Z,14.80
2018-09-06T05:16:11.879Z,14.80
2018-09-06T05:18:39.187Z,14.80
2018-09-06T05:21:06.614Z,14.80
2018-09-06T05:23:33.991Z,14.90
2018-09-06T05:26:01.255Z,14.90
2018-09-06T05:28:28.526Z,14.90
2018-09-06T05:30:55.840Z,14.90
2018-09-06T05:33:23.078Z,15.00
2018-09-06T05:35:50.328Z,15.10
2018-09-06T05:38:17.590Z,15.10
2018-09-06T05:40:44.854Z,15.20
2018-09-06T05:43:12.215Z,15.20
2018-09-06T05:45:40.201Z,15.20
2018-09-06T05:48:07.571Z,15.30
2018-09-06T05:50:34.891Z,15.40
2018-09-06T05:53:02.455Z,15.40
2018-09-06T05:55:30.023Z,15.60
2018-09-06T05:57:57.273Z,15.60
2018-09-06T06:00:30.399Z,15.60
2018-09-06T06:02:59.597Z,15.70
2018-09-06T06:05:26.890Z,15.80
2018-09-06T06:08:06.158Z,15.80
2018-09-06T06:10:33.531Z,15.90
2018-09-06T06:13:00.791Z,15.90
2018-09-06T06:15:28.100Z,16.00
2018-09-06T06:17:55.383Z,16.10
2018-09-06T06:20:22.624Z,16.00
2018-09-06T06:22:49.846Z,16.10
2018-09-06T06:25:17.242Z,16.30
2018-09-06T06:27:44.539Z,16.40
2018-09-06T06:30:11.826Z,16.50
2018-09-06T06:32:39.039Z,16.50
2018-09-06T06:35:06.318Z,16.60
2018-09-06T06:37:33.784Z,16.70
2018-09-06T06:40:00.983Z,16.70
2018-09-06T06:42:28.418Z,16.80
2018-09-06T06:44:55.738Z,16.80
2018-09-06T06:47:22.955Z,16.90
2018-09-06T06:49:50.479Z,17.00
2018-09-06T06:52:17.818Z,17.10
2018-09-06T06:54:45.035Z,17.20
2018-09-06T06:57:12.307Z,17.30
2018-09-06T06:59:39.658Z,17.40
2018-09-06T07:02:07.226Z,17.50
2018-09-06T07:04:34.635Z,17.60
2018-09-06T07:07:02.291Z,17.60
2018-09-06T07:09:29.450Z,17.80
2018-09-06T07:11:56.682Z,17.90
2018-09-06T07:14:24.016Z,18.00
2018-09-06T07:16:51.210Z,18.10
2018-09-06T07:19:18.628Z,18.20
2018-09-06T07:21:45.899Z,18.30
2018-09-06T07:24:13.135Z,18.30
2018-09-06T07:26:40.492Z,18.30
2018-09-06T07:29:07.794Z,18.30
2018-09-06T07:31:35.027Z,18.40
2018-09-06T07:34:02.285Z,18.40
2018-09-06T07:36:29.574Z,18.60
2018-09-06T07:38:56.832Z,18.70
2018-09-06T07:41:24.169Z,18.70
2018-09-06T07:43:51.383Z,18.80
2018-09-06T07:46:18.632Z,19.00
2018-09-06T07:48:45.895Z,19.20
2018-09-06T07:51:13.152Z,19.40
2018-09-06T07:53:40.491Z,19.50
2018-09-06T07:56:08.139Z,19.60
2018-09-06T07:58:35.388Z,19.70
2018-09-06T08:01:02.588Z,19.70
2018-09-06T08:03:29.944Z,19.80
2018-09-06T08:05:57.194Z,20.00
2018-09-06T08:08:24.375Z,20.00
2018-09-06T08:10:51.592Z,20.10
2018-09-06T08:13:18.787Z,20.20
2018-09-06T08:15:46.195Z,20.30
2018-09-06T08:18:13.391Z,20.50
2018-09-06T08:20:40.677Z,20.50
2018-09-06T08:23:07.916Z,20.50
2018-09-06T08:25:35.129Z,20.60
2018-09-06T08:28:02.367Z,20.70
2018-09-06T08:30:29.631Z,20.90
2018-09-06T08:32:56.831Z,21.00
2018-09-06T08:35:24.071Z,21.10
2018-09-06T08:37:51.296Z,21.30
2018-09-06T08:40:18.495Z,21.40
2018-09-06T08:42:45.741Z,21.60
2018-09-06T08:45:13.223Z,21.60
2018-09-06T08:47:40.464Z,21.80
2018-09-06T08:50:07.655Z,21.80
2018-09-06T08:52:35.000Z,21.80
2018-09-06T08:55:02.213Z,21.90
2018-09-06T08:57:29.553Z,22.10
2018-09-06T08:59:56.799Z,22.10
2018-09-06T09:02:24.104Z,22.30
2018-09-06T09:04:51.287Z,22.40
2018-09-06T09:07:18.538Z,22.60
2018-09-06T09:09:45.782Z,22.70
2018-09-06T09:12:13.067Z,22.90
2018-09-06T09:14:40.296Z,22.90
2018-09-06T09:17:07.547Z,23.00
2018-09-06T09:19:34.957Z,23.10
2018-09-06T09:22:02.350Z,23.20
2018-09-06T09:24:29.646Z,23.50
2018-09-06T09:26:56.846Z,23.60
2018-09-06T09:29:24.306Z,23.60
2018-09-06T09:31:51.616Z,23.70
2018-09-06T09:34:18.943Z,23.80
2018-09-06T09:36:46.243Z,23.80
2018-09-06T09:39:13.549Z,23.80
2018-09-06T09:41:40.952Z,23.90
2018-09-06T09:44:08.259Z,24.00
2018-09-06T09:49:02.343Z,24.20
2018-09-06T09:51:29.550Z,24.40
2018-09-06T09:53:56.914Z,24.50
2018-09-06T09:56:24.238Z,24.60
2018-09-06T09:58:52.206Z,24.60
2018-09-06T10:01:19.705Z,24.70
2018-09-06T10:03:52.849Z,24.70
2018-09-06T10:06:25.756Z,24.70
2018-09-06T10:08:59.022Z,25.00
2018-09-06T10:11:26.422Z,25.10
2018-09-06T10:13:53.762Z,25.20
2018-09-06T10:16:23.555Z,25.30
2018-09-06T10:18:50.813Z,25.30
2018-09-06T10:21:18.155Z,25.40
2018-09-06T10:23:45.679Z,25.40
2018-09-06T10:26:13.388Z,25.60
2018-09-06T10:28:40.675Z,25.70
2018-09-06T10:31:08.969Z,25.70
2018-09-06T10:33:36.243Z,25.90
2018-09-06T10:36:03.647Z,26.00
2018-09-06T10:38:31.110Z,26.00
2018-09-06T10:40:58.527Z,26.10
2018-09-06T10:43:26.038Z,26.20
2018-09-06T10:45:53.280Z,26.40
2018-09-06T10:48:20.542Z,26.50
2018-09-06T10:50:47.804Z,26.50
2018-09-06T10:53:15.103Z,26.60
2018-09-06T10:55:42.459Z,26.70
2018-09-06T10:58:09.889Z,26.80
2018-09-06T11:00:37.220Z,27.20
2018-09-06T11:03:04.482Z,27.30
2018-09-06T11:05:32.122Z,27.20
2018-09-06T11:07:59.548Z,27.30
2018-09-06T11:10:26.762Z,27.50
2018-09-06T11:12:54.011Z,27.60
2018-09-06T11:15:21.240Z,27.60
2018-09-06T11:17:48.563Z,27.60
2018-09-06T11:20:15.823Z,27.40
2018-09-06T11:22:43.273Z,27.40
2018-09-06T11:25:10.323Z,27.40
2018-09-06T11:27:37.818Z,27.50
2018-09-06T11:30:05.067Z,27.60
2018-09-06T11:32:32.378Z,27.80
2018-09-06T11:34:59.690Z,28.10
2018-09-06T11:37:26.978Z,28.20
2018-09-06T11:39:54.379Z,28.20
2018-09-06T11:42:21.686Z,28.50
2018-09-06T11:44:48.995Z,28.60
2018-09-06T11:47:16.353Z,28.60
2018-09-06T11:49:43.635Z,28.80
2018-09-06T11:52:10.991Z,28.90
2018-09-06T11:54:38.243Z,29.10
2018-09-06T11:57:05.531Z,29.30
2018-09-06T11:59:32.750Z,29.30
2018-09-06T12:02:00.090Z,29.30
2018-09-06T12:04:27.431Z,29.40
2018-09-06T12:06:54.764Z,29.50
2018-09-06T12:09:22.022Z,29.30
2018-09-06T12:11:49.306Z,29.20
2018-09-06T12:14:16.659Z,29.20
2018-09-06T12:16:44.231Z,29.20
2018-09-06T12:19:11.814Z,29.20
2018-09-06T12:21:39.143Z,29.10
2018-09-06T12:24:06.423Z,29.40
2018-09-06T12:26:33.646Z,29.80
2018-09-06T12:29:00.872Z,29.90
2018-09-06T12:31:28.123Z,30.30
2018-09-06T12:33:55.430Z,30.70
2018-09-06T12:36:22.667Z,31.20
2018-09-06T12:38:50.011Z,31.70
2018-09-06T12:41:17.150Z,31.70
2018-09-06T12:43:44.429Z,31.30
2018-09-06T12:46:11.636Z,31.30
2018-09-06T12:48:38.887Z,31.30
2018-09-06T12:51:06.152Z,31.50
2018-09-06T12:53:33.358Z,31.30
2018-09-06T12:56:00.598Z,31.30
2018-09-06T12:58:27.931Z,31.10
2018-09-06T13:00:55.130Z,30.90
2018-09-06T13:03:22.943Z,31.20
2018-09-06T13:05:50.581Z,31.70
2018-09-06T13:08:17.795Z,32.30
2018-09-06T13:10:44.994Z,32.70
2018-09-06T13:13:12.182Z,32.30
2018-09-06T13:15:39.385Z,32.10
2018-09-06T13:18:06.584Z,32.60
2018-09-06T13:20:33.776Z,33.10
2018-09-06T13:23:00.982Z,33.10
2018-09-06T13:25:28.200Z,33.90
2018-09-06T13:27:55.411Z,34.00
2018-09-06T13:30:22.591Z,33.70
2018-09-06T13:32:49.750Z,32.90
2018-09-06T13:35:16.950Z,32.30
2018-09-06T13:37:44.143Z,31.90
2018-09-06T13:40:11.354Z,31.40
2018-09-06T13:42:38.554Z,31.00
2018-09-06T13:45:05.805Z,30.50
2018-09-06T13:47:33.022Z,30.20
2018-09-06T13:50:00.234Z,29.90
2018-09-06T13:52:27.444Z,29.80
2018-09-06T13:54:54.648Z,29.90
2018-09-06T13:57:22.090Z,30.40
2018-09-06T13:59:49.294Z,30.70
2018-09-06T14:02:17.591Z,30.80
2018-09-06T14:04:44.782Z,31.00
2018-09-06T14:07:11.995Z,30.90
2018-09-06T14:09:39.301Z,30.90
2018-09-06T14:12:06.610Z,31.00
2018-09-06T14:14:33.794Z,31.00
2018-09-06T14:17:01.210Z,31.10
2018-09-06T14:19:29.462Z,31.50
2018-09-06T14:21:56.679Z,31.60
2018-09-06T14:24:23.891Z,31.70
2018-09-06T14:26:51.275Z,31.50
2018-09-06T14:29:18.490Z,31.10
2018-09-06T14:31:45.747Z,30.80
2018-09-06T14:34:13.103Z,30.50
2018-09-06T14:36:40.319Z,30.40
2018-09-06T14:39:08.105Z,30.10
2018-09-06T14:41:35.565Z,30.00
2018-09-06T14:44:02.981Z,29.90
2018-09-06T14:46:30.158Z,29.70
2018-09-06T14:48:57.347Z,29.40
2018-09-06T14:51:24.531Z,29.10
2018-09-06T14:53:51.732Z,28.80
2018-09-06T14:56:19.114Z,28.30
2018-09-06T14:58:46.345Z,27.10
2018-09-06T15:01:13.516Z,26.10
2018-09-06T15:03:40.699Z,25.60
2018-09-06T15:06:08.170Z,25.00
2018-09-06T15:08:35.475Z,24.50
2018-09-06T15:11:02.666Z,23.80
2018-09-06T15:13:29.893Z,22.80
2018-09-06T15:15:57.085Z,21.80
2018-09-06T15:18:24.307Z,21.00
2018-09-06T15:20:51.742Z,20.50
2018-09-06T15:23:18.958Z,20.20
2018-09-06T15:25:47.331Z,19.90
2018-09-06T15:28:14.666Z,19.70
2018-09-06T15:30:41.931Z,19.60
2018-09-06T15:33:09.515Z,19.50
2018-09-06T15:35:36.842Z,19.40
2018-09-06T15:38:04.126Z,19.40
2018-09-06T15:40:31.426Z,19.50
2018-09-06T15:42:58.699Z,19.60
2018-09-06T15:45:25.975Z,19.50
2018-09-06T15:47:53.327Z,19.50
2018-09-06T15:50:20.550Z,19.60
2018-09-06T15:52:47.851Z,19.60
2018-09-06T15:55:15.186Z,19.60
2018-09-06T15:57:42.580Z,19.70
2018-09-06T16:00:09.899Z,19.70
2018-09-06T16:02:37.102Z,19.70
2018-09-06T16:05:04.415Z,19.70
2018-09-06T16:07:31.638Z,19.70
2018-09-06T16:09:58.895Z,19.70
2018-09-06T16:12:27.309Z,19.70
2018-09-06T16:14:54.446Z,19.70
2018-09-06T16:17:21.708Z,19.70
2018-09-06T16:19:48.912Z,19.60
2018-09-06T16:22:16.094Z,19.60
2018-09-06T16:24:43.307Z,19.60
2018-09-06T16:27:10.487Z,19.80
2018-09-06T16:29:37.691Z,19.70
2018-09-06T16:32:05.889Z,19.80
2018-09-06T16:34:33.322Z,19.90
2018-09-06T16:37:00.935Z,20.00
2018-09-06T16:39:29.203Z,20.10
2018-09-06T16:41:56.412Z,20.10
2018-09-06T16:44:23.618Z,20.30
2018-09-06T16:46:50.865Z,20.30
2018-09-06T16:49:18.058Z,20.40
2018-09-06T16:51:45.263Z,20.40
2018-09-06T16:54:12.497Z,20.40
2018-09-06T16:56:39.698Z,20.40
2018-09-06T16:59:06.914Z,20.30
2018-09-06T17:01:34.136Z,20.10
2018-09-06T17:04:01.338Z,20.10
2018-09-06T17:06:28.558Z,20.00
2018-09-06T17:08:55.754Z,20.10
2018-09-06T17:11:22.943Z,20.00
2018-09-06T17:13:50.155Z,20.00
2018-09-06T17:16:17.518Z,19.90
2018-09-06T17:18:44.751Z,19.70
2018-09-06T17:21:12.224Z,19.60
2018-09-06T17:23:39.429Z,19.50
2018-09-06T17:26:06.968Z,19.50
2018-09-06T17:28:34.288Z,19.40
2018-09-06T17:31:01.507Z,19.40
2018-09-06T17:33:28.714Z,19.30
2018-09-06T17:35:56.247Z,19.30
2018-09-06T17:38:23.534Z,19.30
2018-09-06T17:40:50.763Z,19.30
2018-09-06T17:43:17.954Z,19.20
2018-09-06T17:45:45.163Z,19.20
2018-09-06T17:48:12.409Z,19.10
2018-09-06T17:50:39.718Z,19.00
2018-09-06T17:53:06.946Z,19.00
2018-09-06T17:55:35.335Z,18.90
2018-09-06T17:58:02.732Z,18.90
2018-09-06T18:00:29.970Z,18.90
2018-09-06T18:02:57.230Z,18.80
2018-09-06T18:05:24.450Z,18.80
2018-09-06T18:07:52.082Z,18.80
2018-09-06T18:10:19.311Z,18.70
2018-09-06T18:12:46.739Z,18.80
2018-09-06T18:15:13.950Z,18.70
2018-09-06T18:17:41.262Z,18.80
2018-09-06T18:20:08.408Z,18.80
2018-09-06T18:22:35.643Z,18.70
2018-09-06T18:25:02.908Z,18.70
2018-09-06T18:27:30.158Z,18.70
2018-09-06T18:29:57.426Z,18.70
2018-09-06T18:32:24.690Z,18.70
2018-09-06T18:34:52.607Z,18.70
2018-09-06T18:37:19.886Z,18.70
2018-09-06T18:39:47.128Z,18.70
2018-09-06T18:42:15.411Z,18.70
2018-09-06T18:44:42.586Z,18.50
2018-09-06T18:47:09.859Z,18.30
2018-09-06T18:49:38.159Z,18.10
2018-09-06T18:52:05.359Z,18.00
2018-09-06T18:54:32.562Z,17.90
2018-09-06T18:56:59.762Z,17.90
2018-09-06T18:59:28.250Z,18.00
2018-09-06T19:01:55.455Z,18.10
2018-09-06T19:04:22.610Z,18.10
2018-09-06T19:06:49.819Z,18.20
2018-09-06T19:09:17.029Z,18.20
2018-09-06T19:11:44.280Z,18.10
2018-09-06T19:14:11.490Z,18.10
2018-09-06T19:16:38.761Z,18.10
2018-09-06T19:19:05.955Z,18.20
2018-09-06T19:21:33.171Z,18.20
2018-09-06T19:24:00.536Z,18.20
2018-09-06T19:26:27.722Z,18.20
2018-09-06T19:28:54.915Z,18.10
2018-09-06T19:31:22.231Z,18.00
2018-09-06T19:33:49.582Z,18.00
2018-09-06T19:36:16.803Z,17.90
2018-09-06T19:38:44.015Z,17.90
2018-09-06T19:41:11.230Z,17.80
2018-09-06T19:43:38.590Z,17.70
2018-09-06T19:46:06.317Z,17.70
2018-09-06T19:48:33.543Z,17.60
2018-09-06T19:51:00.747Z,17.60
2018-09-06T19:53:27.974Z,17.50
2018-09-06T19:55:55.254Z,17.50
2018-09-06T19:58:22.491Z,17.60
2018-09-06T20:00:49.681Z,17.50
2018-09-06T20:03:16.899Z,17.50
2018-09-06T20:05:44.137Z,17.50
2018-09-06T20:08:11.561Z,17.50
2018-09-06T20:10:38.710Z,17.50
2018-09-06T20:13:05.952Z,17.50
2018-09-06T20:15:33.170Z,17.50
2018-09-06T20:18:00.363Z,17.50
2018-09-06T20:20:27.678Z,17.50
2018-09-06T20:22:54.888Z,17.60
2018-09-06T20:25:22.075Z,17.60
2018-09-06T20:27:49.333Z,17.70
2018-09-06T20:30:16.522Z,17.70
2018-09-06T20:32:43.747Z,17.70
2018-09-06T20:35:10.962Z,17.70
2018-09-06T20:37:38.146Z,17.60
2018-09-06T20:40:05.409Z,17.60
2018-09-06T20:42:33.434Z,17.50
2018-09-06T20:45:00.671Z,17.50
2018-09-06T20:47:27.878Z,17.50
2018-09-06T20:49:55.106Z,17.50
2018-09-06T20:52:22.346Z,17.60
2018-09-06T20:54:49.607Z,17.60
2018-09-06T20:57:16.795Z,17.60
2018-09-06T20:59:44.011Z,17.70
2018-09-06T21:02:17.062Z,17.70
2018-09-06T21:04:44.337Z,17.80
2018-09-06T21:07:11.544Z,17.80
2018-09-06T21:09:38.792Z,17.70
2018-09-06T21:12:06.014Z,17.80
2018-09-06T21:14:33.221Z,17.80
2018-09-06T21:17:00.398Z,17.80
2018-09-06T21:19:27.587Z,17.70
2018-09-06T21:21:55.033Z,17.60
2018-09-06T21:24:22.242Z,17.60
2018-09-06T21:26:49.454Z,17.60
2018-09-06T21:29:16.647Z,17.70
2018-09-06T21:31:43.870Z,17.70
2018-09-06T21:34:11.123Z,17.70
2018-09-06T21:36:38.367Z,17.70
2018-09-06T21:39:07.800Z,17.80
2018-09-06T21:41:35.001Z,17.80
2018-09-06T21:44:04.113Z,17.80
2018-09-06T21:46:31.490Z,17.80
2018-09-06T21:48:58.714Z,17.70
2018-09-06T21:51:25.992Z,17.50
2018-09-06T21:53:53.275Z,17.60
2018-09-06T21:56:20.494Z,17.60
2018-09-06T21:58:47.870Z,17.60
2018-09-06T22:01:15.151Z,17.40
2018-09-06T22:03:48.195Z,17.40
2018-09-06T22:06:15.382Z,17.30
2018-09-06T22:08:42.562Z,17.20
2018-09-06T22:11:09.767Z,17.10
2018-09-06T22:13:36.951Z,17.00
2018-09-06T22:16:05.274Z,17.00
2018-09-06T22:18:32.502Z,17.00
2018-09-06T22:20:59.695Z,17.10
2018-09-06T22:23:26.901Z,17.00
2018-09-06T22:25:54.131Z,17.00
2018-09-06T22:28:21.308Z,17.10
2018-09-06T22:30:50.208Z,17.10
2018-09-06T22:33:17.474Z,17.10
2018-09-06T22:35:44.686Z,17.20
2018-09-06T22:38:11.886Z,17.30
2018-09-06T22:40:39.098Z,17.40
2018-09-06T22:43:06.475Z,17.40
2018-09-06T22:45:33.722Z,17.40
2018-09-06T22:48:00.994Z,17.50
2018-09-06T22:50:28.469Z,17.50
2018-09-06T22:52:55.693Z,17.50
2018-09-06T22:55:22.937Z,17.50
2018-09-06T22:57:50.230Z,17.60
2018-09-06T23:00:19.856Z,17.60
2018-09-06T23:02:53.157Z,17.70
2018-09-06T23:05:22.924Z,17.60
2018-09-06T23:07:50.604Z,17.60
2018-09-06T23:10:18.251Z,17.60
2018-09-06T23:12:47.460Z,17.50
2018-09-06T23:15:16.843Z,17.60
2018-09-06T23:18:01.974Z,17.60
2018-09-06T23:20:30.253Z,17.50
2018-09-06T23:22:58.033Z,17.40
2018-09-06T23:25:31.506Z,17.40
2018-09-06T23:28:15.729Z,17.40
2018-09-06T23:30:43.070Z,17.40
2018-09-06T23:33:10.456Z,17.50
2018-09-06T23:35:38.523Z,17.50
2018-09-06T23:38:06.263Z,17.50
2018-09-06T23:40:38.951Z,17.60
2018-09-06T23:43:06.706Z,17.60
2018-09-06T23:45:33.990Z,17.70
2018-09-06T23:48:01.607Z,17.70
2018-09-06T23:50:28.814Z,17.70
2018-09-06T23:52:56.119Z,17.60
2018-09-06T23:55:23.358Z,17.50
2018-09-06T23:57:50.624Z,17.50
